createdAt,value
2023-05-05T00:03:14.782Z,101844.53
2023-05-05T00:08:17.482Z,101842.38
2023-05-05T00:13:20.448Z,101825.88
2023-05-05T00:18:22.556Z,101826.75
2023-05-05T00:23:24.579Z,101809.94
2023-05-05T00:28:26.668Z,101804.19
2023-05-05T00:33:28.930Z,101807.53
2023-05-05T00:38:31.051Z,101803.72
2023-05-05T00:43:33.285Z,101796.31
2023-05-05T00:48:35.870Z,101796.06
2023-05-05T00:53:39.800Z,101782.31
2023-05-05T00:58:44.703Z,101780.19
2023-05-05T01:05:20.767Z,101770.91
2023-05-05T01:10:49.009Z,101768.75
2023-05-05T01:15:53.641Z,101769.09
2023-05-05T01:20:59.776Z,101761.69
2023-05-05T01:26:21.766Z,101757.84
2023-05-05T01:31:32.671Z,101754.03
2023-05-05T01:36:42.431Z,101752.38
2023-05-05T01:41:49.189Z,101735.59
2023-05-05T01:46:52.376Z,101744.97
2023-05-05T01:51:56.401Z,101735.34
2023-05-05T01:56:59.752Z,101735.13
2023-05-05T02:02:03.584Z,101737.34
2023-05-05T02:11:30.147Z,101727.47
2023-05-05T02:16:33.328Z,101734.38
2023-05-05T02:21:35.312Z,101731.94
2023-05-05T02:26:39.977Z,101726.47
2023-05-05T02:31:51.320Z,101712.75
2023-05-05T02:37:03.483Z,101728.72
2023-05-05T02:42:11.189Z,101722.69
2023-05-05T02:47:13.618Z,101721.03
2023-05-05T02:52:16.149Z,101713.88
2023-05-05T02:57:24.306Z,101713.31
2023-05-05T03:02:54.371Z,101708.94
2023-05-05T03:08:03.466Z,101700.66
2023-05-05T03:13:20.581Z,101700.13
2023-05-05T03:18:25.201Z,101692.44
2023-05-05T03:23:36.654Z,101700.44
2023-05-05T03:28:47.063Z,101707.34
2023-05-05T03:33:55.149Z,101690.34
2023-05-05T03:39:01.563Z,101694.78
2023-05-05T03:44:11.270Z,101695.91
2023-05-05T03:49:13.385Z,101686.84
2023-05-05T03:54:17.593Z,101684.41
2023-05-05T03:59:19.815Z,101685.56
2023-05-05T04:08:25.401Z,101680.38
2023-05-05T04:16:34.188Z,101685.88
2023-05-05T04:21:37.301Z,101700.22
2023-05-05T04:26:39.402Z,101691.41
2023-05-05T04:31:42.021Z,101700.22
2023-05-05T04:36:44.516Z,101698.88
2023-05-05T04:41:47.153Z,101690.06
2023-05-05T04:46:50.021Z,101694.75
2023-05-05T04:51:52.395Z,101698.31
2023-05-05T04:56:55.986Z,101695.56
2023-05-05T05:02:04.714Z,101703.53
2023-05-05T05:07:07.095Z,101718.13
2023-05-05T05:12:09.852Z,101728.00
2023-05-05T05:17:12.068Z,101726.38
2023-05-05T05:22:14.542Z,101743.16
2023-05-05T05:27:18.696Z,101744.50
2023-05-05T05:32:22.919Z,101739.84
2023-05-05T05:37:32.222Z,101748.34
2023-05-05T05:42:35.348Z,101744.78
2023-05-05T05:47:38.693Z,101752.75
2023-05-05T05:52:40.974Z,101764.56
2023-05-05T05:57:43.517Z,101766.47
2023-05-05T06:02:47.074Z,101776.34
2023-05-05T06:07:53.006Z,101769.72
2023-05-05T06:12:56.776Z,101767.78
2023-05-05T06:18:04.986Z,101772.97
2023-05-05T06:23:07.542Z,101776.25
2023-05-05T06:28:13.012Z,101784.75
2023-05-05T06:33:15.186Z,101791.59
2023-05-05T06:38:17.403Z,101793.75
2023-05-05T06:43:19.577Z,101794.72
2023-05-05T06:48:28.748Z,101795.41
2023-05-05T06:53:30.898Z,101805.38
2023-05-05T06:58:35.676Z,101798.78
2023-05-05T07:03:39.974Z,101797.56
2023-05-05T07:08:42.154Z,101798.22
2023-05-05T07:13:44.425Z,101796.34
2023-05-05T07:18:46.554Z,101795.22
2023-05-05T07:23:48.725Z,101789.69
2023-05-05T07:28:56.139Z,101796.50
2023-05-05T07:33:58.513Z,101794.91
2023-05-05T07:39:00.754Z,101800.16
2023-05-05T07:44:02.993Z,101803.56
2023-05-05T07:49:05.205Z,101805.59
2023-05-05T07:54:07.435Z,101799.50
2023-05-05T07:59:15.658Z,101803.22
2023-05-05T08:04:17.956Z,101796.69
2023-05-05T08:09:20.577Z,101795.31
2023-05-05T08:14:22.762Z,101798.19
2023-05-05T08:19:29.189Z,101805.75
2023-05-05T08:24:33.041Z,101799.41
2023-05-05T08:29:35.228Z,101794.81
2023-05-05T08:34:37.515Z,101790.59
2023-05-05T08:39:39.516Z,101789.31
2023-05-05T08:44:41.613Z,101793.97
2023-05-05T08:49:59.007Z,101780.66
2023-05-05T08:55:10.573Z,101772.88
2023-05-05T09:00:13.479Z,101789.34
2023-05-05T09:05:16.451Z,101793.34
2023-05-05T09:10:19.637Z,101793.09
2023-05-05T09:15:21.698Z,101792.41
2023-05-05T09:20:24.758Z,101783.19
2023-05-05T09:25:26.788Z,101777.03
2023-05-05T09:30:28.869Z,101771.28
2023-05-05T09:35:54.510Z,101777.13
2023-05-05T09:40:56.658Z,101772.91
2023-05-05T09:46:08.670Z,101782.06
2023-05-05T09:51:21.278Z,101780.34
2023-05-05T09:56:38.256Z,101776.56
2023-05-05T10:01:43.339Z,101771.03
2023-05-05T10:06:48.814Z,101779.34
2023-05-05T10:11:55.563Z,101762.34
2023-05-05T10:17:01.855Z,101764.69
2023-05-05T10:22:08.406Z,101753.88
2023-05-05T10:27:21.009Z,101746.56
2023-05-05T10:37:41.484Z,101744.41
2023-05-05T10:42:43.991Z,101723.50
2023-05-05T10:47:46.780Z,101744.03
2023-05-05T10:53:16.889Z,101713.28
2023-05-05T10:58:47.077Z,101730.94
2023-05-05T11:04:37.273Z,101713.47
2023-05-05T11:09:55.514Z,101713.66
2023-05-05T11:15:31.274Z,101720.09
2023-05-05T11:20:36.362Z,101713.41
2023-05-05T11:25:44.687Z,101716.44
2023-05-05T11:30:59.461Z,101711.34
2023-05-05T11:36:06.029Z,101695.66
2023-05-05T11:41:33.649Z,101704.56
2023-05-05T11:46:36.047Z,101693.56
2023-05-05T11:51:38.370Z,101698.31
2023-05-05T11:56:51.190Z,101699.31
2023-05-05T12:01:57.136Z,101691.13
2023-05-05T12:06:59.961Z,101679.22
2023-05-05T12:12:03.091Z,101672.66
2023-05-05T12:17:08.667Z,101661.50
2023-05-05T12:22:10.923Z,101668.44
2023-05-05T12:27:13.038Z,101665.16
2023-05-05T12:32:19.910Z,101649.16
2023-05-05T12:37:26.439Z,101654.72
2023-05-05T12:42:28.836Z,101651.25
2023-05-05T12:47:32.507Z,101645.28
2023-05-05T12:52:45.646Z,101639.00
2023-05-05T12:58:07.204Z,101642.88
2023-05-05T13:03:21.863Z,101631.78
2023-05-05T13:08:42.239Z,101640.34
2023-05-05T13:13:44.705Z,101625.47
2023-05-05T13:18:50.624Z,101632.53
2023-05-05T13:24:01.540Z,101620.22
2023-05-05T13:29:14.415Z,101610.88
2023-05-05T13:34:16.824Z,101607.66
2023-05-05T13:39:19.235Z,101608.50
2023-05-05T13:44:21.986Z,101611.25
2023-05-05T13:49:24.610Z,101603.63
2023-05-05T13:54:26.814Z,101598.41
2023-05-05T13:59:30.137Z,101584.88
2023-05-05T14:04:32.539Z,101599.41
2023-05-05T14:09:34.769Z,101582.22
2023-05-05T14:14:37.512Z,101579.41
2023-05-05T14:19:39.881Z,101576.38
2023-05-05T14:24:41.854Z,101574.31
2023-05-05T14:29:44.129Z,101559.56
2023-05-05T14:34:47.737Z,101558.00
2023-05-05T14:39:51.835Z,101551.13
2023-05-05T14:44:53.960Z,101545.41
2023-05-05T14:49:56.732Z,101544.50
2023-05-05T14:54:58.928Z,101536.13
2023-05-05T15:00:01.563Z,101540.34
2023-05-05T15:05:11.312Z,101533.16
2023-05-05T15:10:13.742Z,101538.84
2023-05-05T15:15:16.172Z,101537.44
2023-05-05T15:22:59.495Z,101537.81
2023-05-05T15:28:01.776Z,101532.28
2023-05-05T15:33:04.103Z,101537.31
2023-05-05T15:38:09.029Z,101533.66
2023-05-05T15:43:11.207Z,101526.03
2023-05-05T15:48:13.174Z,101528.13
2023-05-05T15:53:15.292Z,101532.78
2023-05-05T15:58:18.238Z,101519.69
2023-05-05T16:03:20.291Z,101517.38
2023-05-05T16:08:22.632Z,101521.72
2023-05-05T16:13:25.048Z,101521.38
2023-05-05T16:18:27.475Z,101518.25
2023-05-05T16:23:29.602Z,101513.66
2023-05-05T16:28:34.298Z,101545.88
2023-05-05T16:33:49.945Z,101519.56
2023-05-05T16:38:52.109Z,101515.81
2023-05-05T16:43:54.344Z,101515.91
2023-05-05T16:48:56.622Z,101498.63
2023-05-05T16:53:58.789Z,101501.28
2023-05-05T16:59:01.030Z,101504.88
2023-05-05T17:04:03.414Z,101505.31
2023-05-05T17:09:06.341Z,101500.06
2023-05-05T17:14:08.735Z,101497.50
2023-05-05T17:19:11.315Z,101500.03
2023-05-05T17:24:13.528Z,101498.91
2023-05-05T17:29:19.872Z,101487.25
2023-05-05T17:34:28.299Z,101501.00
2023-05-05T17:39:31.045Z,101504.00
2023-05-05T17:44:33.172Z,101498.78
2023-05-05T17:49:35.295Z,101487.34
2023-05-05T17:54:37.565Z,101496.47
2023-05-05T17:59:39.969Z,101494.53
2023-05-05T18:04:42.486Z,101500.66
2023-05-05T18:09:44.717Z,101502.91
2023-05-05T18:14:47.106Z,101496.94
2023-05-05T18:19:49.630Z,101501.56
2023-05-05T18:24:51.603Z,101501.13
2023-05-05T18:29:53.602Z,101505.94
2023-05-05T18:34:55.859Z,101520.88
2023-05-05T18:39:57.957Z,101522.00
2023-05-05T18:45:00.141Z,101516.25
2023-05-05T18:50:02.555Z,101528.94
2023-05-05T18:55:05.022Z,101533.97
2023-05-05T19:00:07.821Z,101527.72
2023-05-05T19:05:10.651Z,101537.41
2023-05-05T19:10:13.424Z,101542.41
2023-05-05T19:15:15.534Z,101538.53
2023-05-05T19:20:17.734Z,101547.91
2023-05-05T19:25:20.085Z,101551.22
2023-05-05T19:30:22.714Z,101550.41
2023-05-05T19:35:24.956Z,101549.59
2023-05-05T19:40:27.144Z,101554.03
2023-05-05T19:45:29.314Z,101564.28
2023-05-05T19:50:31.754Z,101566.00
2023-05-05T19:55:34.604Z,101578.47
2023-05-05T20:00:36.876Z,101585.94
2023-05-05T20:05:38.912Z,101586.81
2023-05-05T20:10:41.142Z,101594.66
2023-05-05T20:15:43.491Z,101602.44
2023-05-05T20:22:59.184Z,101592.28
2023-05-05T20:28:01.450Z,101604.22
2023-05-05T20:33:03.659Z,101597.66
2023-05-05T20:43:02.635Z,101600.50
2023-05-05T20:48:09.825Z,101605.47
2023-05-05T20:53:15.466Z,101612.41
2023-05-05T20:58:17.745Z,101615.16
2023-05-05T21:03:19.885Z,101610.47
2023-05-05T21:08:22.146Z,101614.56
2023-05-05T21:13:34.720Z,101615.41
2023-05-05T21:23:08.534Z,101610.47
2023-05-05T21:28:11.124Z,101607.41
2023-05-05T21:33:13.495Z,101613.31
2023-05-05T21:38:15.767Z,101609.72
2023-05-05T21:43:17.920Z,101617.09
2023-05-05T21:48:21.658Z,101609.91
2023-05-05T21:53:24.177Z,101612.88
2023-05-05T21:58:26.508Z,101608.72
2023-05-05T22:03:28.752Z,101601.78
2023-05-05T22:08:31.140Z,101589.31
2023-05-05T22:13:33.300Z,101595.94
2023-05-05T22:18:35.904Z,101589.31
2023-05-05T22:23:41.484Z,101584.38
2023-05-05T22:28:43.886Z,101590.72
2023-05-05T22:33:50.706Z,101582.75
2023-05-05T22:38:52.966Z,101585.50
2023-05-05T22:43:56.357Z,101600.44
2023-05-05T22:48:58.279Z,101591.09
2023-05-05T22:54:00.505Z,101593.34
2023-05-05T22:59:20.936Z,101596.97
2023-05-05T23:04:23.061Z,101588.16
2023-05-05T23:09:25.181Z,101589.59
2023-05-05T23:14:27.490Z,101602.56
2023-05-05T23:19:32.508Z,101602.03
2023-05-05T23:24:39.747Z,101595.69
2023-05-05T23:29:41.989Z,101597.94
2023-05-05T23:34:44.065Z,101588.84
2023-05-05T23:39:46.305Z,101587.50
2023-05-05T23:44:48.604Z,101587.50
2023-05-05T23:49:50.719Z,101586.97
2023-05-05T23:54:52.763Z,101586.44
2023-05-05T23:59:54.975Z,101585.63
